createdAt,value
2017-09-30T00:01:22.394Z,19.90
2017-09-30T00:03:50.693Z,19.83
2017-09-30T00:06:18.984Z,20.30
2017-09-30T00:08:47.323Z,20.55
2017-09-30T00:11:15.606Z,19.75
2017-09-30T00:13:43.935Z,20.05
2017-09-30T00:16:12.217Z,19.08
2017-09-30T00:18:40.524Z,19.08
2017-09-30T00:21:08.925Z,18.85
2017-09-30T00:23:37.228Z,20.58
2017-09-30T00:26:05.553Z,20.27
2017-09-30T00:28:34.205Z,19.30
2017-09-30T00:31:02.563Z,21.27
2017-09-30T00:33:31.017Z,19.40
2017-09-30T00:35:59.371Z,19.67
2017-09-30T00:38:27.660Z,19.35
2017-09-30T00:40:56.317Z,18.50
2017-09-30T00:43:25.481Z,20.55
2017-09-30T00:45:53.772Z,20.08
2017-09-30T00:48:22.877Z,18.80
2017-09-30T00:50:51.897Z,20.62
2017-09-30T00:53:20.240Z,19.80
2017-09-30T00:55:49.310Z,20.25
2017-09-30T00:58:17.790Z,18.65
2017-09-30T01:00:46.096Z,21.92
2017-09-30T01:03:15.539Z,19.20
2017-09-30T01:05:43.834Z,21.45
2017-09-30T01:08:12.222Z,19.37
2017-09-30T01:10:40.527Z,19.98
2017-09-30T01:13:09.640Z,19.98
2017-09-30T01:15:38.076Z,20.33
2017-09-30T01:18:06.413Z,20.12
2017-09-30T01:20:35.159Z,18.85
2017-09-30T01:23:03.469Z,20.55
2017-09-30T01:25:31.759Z,18.33
2017-09-30T01:28:00.025Z,19.75
2017-09-30T01:30:28.358Z,20.48
2017-09-30T01:32:56.575Z,20.52
2017-09-30T01:35:24.759Z,19.33
2017-09-30T01:37:52.954Z,20.85
2017-09-30T01:40:21.166Z,20.67
2017-09-30T01:42:50.155Z,19.90
2017-09-30T01:45:18.410Z,20.30
2017-09-30T01:47:46.635Z,20.75
2017-09-30T01:50:14.901Z,21.37
2017-09-30T01:52:43.135Z,19.80
2017-09-30T01:55:11.397Z,21.05
2017-09-30T01:57:39.660Z,22.92
2017-09-30T02:00:07.847Z,21.17
2017-09-30T02:02:36.454Z,21.33
2017-09-30T02:05:04.643Z,22.00
2017-09-30T02:07:33.611Z,21.98
2017-09-30T02:10:01.835Z,21.60
2017-09-30T02:12:30.034Z,21.25
2017-09-30T02:14:58.234Z,20.67
2017-09-30T02:17:26.471Z,22.33
2017-09-30T02:19:55.257Z,21.27
2017-09-30T02:22:23.453Z,20.33
2017-09-30T02:24:51.665Z,20.73
2017-09-30T02:27:20.614Z,20.50
2017-09-30T02:29:48.795Z,20.92
2017-09-30T02:32:17.345Z,20.75
2017-09-30T02:34:45.529Z,21.70
2017-09-30T02:37:13.737Z,21.67
2017-09-30T02:39:42.703Z,20.77
2017-09-30T02:42:10.946Z,21.50
2017-09-30T02:44:39.143Z,21.67
2017-09-30T02:47:07.371Z,21.80
2017-09-30T02:49:36.708Z,22.02
2017-09-30T02:52:04.894Z,20.67
2017-09-30T02:54:33.151Z,21.62
2017-09-30T02:57:01.388Z,22.23
2017-09-30T02:59:30.371Z,22.00
2017-09-30T03:01:59.823Z,23.30
2017-09-30T03:04:28.118Z,22.20
2017-09-30T03:06:56.375Z,21.75
2017-09-30T03:09:24.604Z,21.77
2017-09-30T03:11:53.592Z,21.70
2017-09-30T03:14:22.563Z,21.27
2017-09-30T03:16:50.778Z,21.45
2017-09-30T03:19:19.420Z,22.55
2017-09-30T03:21:47.648Z,22.30
2017-09-30T03:24:15.852Z,22.65
2017-09-30T03:26:44.083Z,22.77
2017-09-30T03:29:12.301Z,22.25
2017-09-30T03:31:40.530Z,21.92
2017-09-30T03:34:09.519Z,21.67
2017-09-30T03:36:38.087Z,22.50
2017-09-30T03:39:07.061Z,23.55
2017-09-30T03:41:35.270Z,22.15
2017-09-30T03:44:04.361Z,22.25
2017-09-30T03:46:33.374Z,22.52
2017-09-30T03:49:01.567Z,24.00
2017-09-30T03:51:29.798Z,22.42
2017-09-30T03:53:58.008Z,22.65
2017-09-30T03:56:26.593Z,22.45
2017-09-30T03:58:54.815Z,23.40
2017-09-30T04:01:23.010Z,23.15
2017-09-30T04:03:51.277Z,22.50
2017-09-30T04:06:19.478Z,23.70
2017-09-30T04:08:47.699Z,25.15
2017-09-30T04:11:15.886Z,22.42
2017-09-30T04:13:44.863Z,24.00
2017-09-30T04:16:13.070Z,24.15
2017-09-30T04:18:41.285Z,24.83
2017-09-30T04:21:09.515Z,23.30
2017-09-30T04:23:37.729Z,23.65
2017-09-30T04:26:05.937Z,24.40
2017-09-30T04:28:34.568Z,22.50
2017-09-30T04:31:02.789Z,24.35
2017-09-30T04:33:30.983Z,24.35
2017-09-30T04:35:59.944Z,24.73
2017-09-30T04:38:28.155Z,24.08
2017-09-30T04:40:57.566Z,23.23
2017-09-30T04:43:25.794Z,24.27
2017-09-30T04:45:54.010Z,24.00
2017-09-30T04:48:23.003Z,24.10
2017-09-30T04:50:52.785Z,23.95
2017-09-30T04:53:21.157Z,24.25
2017-09-30T04:55:49.398Z,22.67
2017-09-30T04:58:17.622Z,23.15
2017-09-30T05:00:46.587Z,25.12
2017-09-30T05:03:15.149Z,24.30
2017-09-30T05:05:43.368Z,24.95
2017-09-30T05:08:11.592Z,22.40
2017-09-30T05:10:39.820Z,23.15
2017-09-30T05:13:08.841Z,24.50
2017-09-30T05:15:37.046Z,23.90
2017-09-30T05:18:05.287Z,24.67
2017-09-30T05:20:33.487Z,24.40
2017-09-30T05:23:01.705Z,23.65
2017-09-30T05:25:29.907Z,23.40
2017-09-30T05:27:58.146Z,23.73
2017-09-30T05:30:26.356Z,24.12
2017-09-30T05:32:54.574Z,22.75
2017-09-30T05:35:22.819Z,23.67
2017-09-30T05:37:51.091Z,24.75
2017-09-30T05:40:19.360Z,23.00
2017-09-30T05:42:47.608Z,22.40
2017-09-30T05:45:16.596Z,23.62
2017-09-30T05:47:45.598Z,23.27
2017-09-30T05:50:14.632Z,23.02
2017-09-30T05:52:42.863Z,23.20
2017-09-30T05:55:11.849Z,22.62
2017-09-30T05:57:40.872Z,24.50
2017-09-30T06:00:09.104Z,22.92
2017-09-30T06:02:37.424Z,22.20
2017-09-30T06:05:05.661Z,24.45
2017-09-30T06:07:33.870Z,22.17
2017-09-30T06:10:02.072Z,23.80
2017-09-30T06:12:30.332Z,23.48
2017-09-30T06:14:58.523Z,23.85
2017-09-30T06:17:26.724Z,24.52
2017-09-30T06:19:55.463Z,24.50
2017-09-30T06:22:24.866Z,23.87
2017-09-30T06:25:04.023Z,22.50
2017-09-30T06:27:32.223Z,24.35
2017-09-30T06:30:00.439Z,24.80
2017-09-30T06:32:28.725Z,23.27
2017-09-30T06:34:56.931Z,24.20
2017-09-30T06:37:25.168Z,22.52
2017-09-30T06:39:53.402Z,23.42
2017-09-30T06:42:22.385Z,23.75
2017-09-30T06:44:50.600Z,23.45
2017-09-30T06:47:18.802Z,22.30
2017-09-30T06:49:47.015Z,22.52
2017-09-30T06:52:15.974Z,23.92
2017-09-30T06:54:44.170Z,24.33
2017-09-30T06:57:12.415Z,23.45
2017-09-30T06:59:40.614Z,22.95
2017-09-30T07:02:09.154Z,24.48
2017-09-30T07:04:37.593Z,22.02
2017-09-30T07:07:06.598Z,23.85
2017-09-30T07:09:34.799Z,22.37
2017-09-30T07:12:03.022Z,23.38
2017-09-30T07:14:32.014Z,23.92
2017-09-30T07:17:00.974Z,23.05
2017-09-30T07:19:29.183Z,23.83
2017-09-30T07:21:58.142Z,21.87
2017-09-30T07:24:26.302Z,23.35
2017-09-30T07:26:54.551Z,22.77
2017-09-30T07:29:22.751Z,23.15
2017-09-30T07:31:50.977Z,23.98
2017-09-30T07:34:19.956Z,23.48
2017-09-30T07:36:48.229Z,24.17
2017-09-30T07:39:16.435Z,21.90
2017-09-30T07:41:44.666Z,22.50
2017-09-30T07:44:12.928Z,23.83
2017-09-30T07:46:41.132Z,23.00
2017-09-30T07:49:11.414Z,22.70
2017-09-30T07:51:39.834Z,21.48
2017-09-30T07:54:08.794Z,21.25
2017-09-30T07:56:36.997Z,21.55
2017-09-30T07:59:05.971Z,22.73
2017-09-30T08:01:34.503Z,22.10
2017-09-30T08:04:02.774Z,22.42
2017-09-30T08:06:30.985Z,21.55
2017-09-30T08:08:59.198Z,22.65
2017-09-30T08:11:28.207Z,22.70
2017-09-30T08:13:56.420Z,22.67
2017-09-30T08:16:24.649Z,23.23
2017-09-30T08:18:53.628Z,23.70
2017-09-30T08:21:23.103Z,24.73
2017-09-30T08:23:51.378Z,21.52
2017-09-30T08:26:19.559Z,22.92
2017-09-30T08:28:47.799Z,21.87
2017-09-30T08:31:16.019Z,22.48
2017-09-30T08:33:44.317Z,23.25
2017-09-30T08:36:13.315Z,24.37
2017-09-30T08:38:41.665Z,23.00
2017-09-30T08:41:09.877Z,22.58
2017-09-30T08:43:38.478Z,22.42
2017-09-30T08:46:06.686Z,23.48
2017-09-30T08:48:34.891Z,20.83
2017-09-30T08:51:03.096Z,21.23
2017-09-30T08:53:31.310Z,21.65
2017-09-30T08:55:59.507Z,22.30
2017-09-30T08:58:28.502Z,22.48
2017-09-30T09:00:57.838Z,22.42
2017-09-30T09:03:26.076Z,22.95
2017-09-30T09:05:55.042Z,22.30
2017-09-30T09:08:23.242Z,21.75
2017-09-30T09:10:52.220Z,20.60
2017-09-30T09:13:21.399Z,21.95
2017-09-30T09:15:49.590Z,23.20
2017-09-30T09:18:18.582Z,21.50
2017-09-30T09:20:47.550Z,21.90
2017-09-30T09:23:15.779Z,22.70
2017-09-30T09:25:43.994Z,21.70
2017-09-30T09:28:12.274Z,22.70
2017-09-30T09:30:40.722Z,21.80
2017-09-30T09:33:08.932Z,22.65
2017-09-30T09:35:37.122Z,21.70
2017-09-30T09:38:06.574Z,21.25
2017-09-30T09:40:34.790Z,23.05
2017-09-30T09:43:03.009Z,21.95
2017-09-30T09:45:31.276Z,22.75
2017-09-30T09:47:59.531Z,20.60
2017-09-30T09:50:28.486Z,21.85
2017-09-30T09:52:56.687Z,20.80
2017-09-30T09:55:26.582Z,23.00
2017-09-30T09:57:54.802Z,21.10
2017-09-30T10:00:23.089Z,21.90
2017-09-30T10:02:51.323Z,21.42
2017-09-30T10:05:20.430Z,21.55
2017-09-30T10:07:48.739Z,21.33
2017-09-30T10:10:17.008Z,20.40
2017-09-30T10:12:45.323Z,21.65
2017-09-30T10:15:13.611Z,21.25
2017-09-30T10:17:42.738Z,20.95
2017-09-30T10:20:10.994Z,22.17
2017-09-30T10:22:42.045Z,21.52
2017-09-30T10:25:10.361Z,21.45
2017-09-30T10:30:42.942Z,20.23
2017-09-30T10:33:11.451Z,20.80
2017-09-30T10:35:39.970Z,21.27
2017-09-30T10:38:09.039Z,21.98
2017-09-30T10:40:37.579Z,21.75
2017-09-30T10:43:06.552Z,22.05
2017-09-30T10:45:34.897Z,21.35
2017-09-30T10:48:03.496Z,20.75
2017-09-30T10:50:31.890Z,21.65
2017-09-30T10:53:00.537Z,21.23
2017-09-30T10:55:31.312Z,21.92
2017-09-30T10:57:59.683Z,23.50
2017-09-30T11:00:28.042Z,19.77
2017-09-30T11:02:56.328Z,20.50
2017-09-30T11:05:25.371Z,21.45
2017-09-30T11:07:53.635Z,19.67
2017-09-30T11:10:21.876Z,21.92
2017-09-30T11:12:50.970Z,21.48
2017-09-30T11:15:19.349Z,21.02
2017-09-30T11:17:48.480Z,20.55
2017-09-30T11:20:17.610Z,20.45
2017-09-30T11:22:46.069Z,20.65
2017-09-30T11:25:14.294Z,19.42
2017-09-30T11:27:42.770Z,20.88
2017-09-30T11:33:10.806Z,19.85
2017-09-30T11:35:39.032Z,20.70
2017-09-30T11:38:07.311Z,19.52
2017-09-30T11:40:35.584Z,20.75
2017-09-30T11:43:03.901Z,19.58
2017-09-30T11:45:32.149Z,19.90
2017-09-30T11:48:00.415Z,21.67
2017-09-30T11:50:28.787Z,19.95
2017-09-30T11:52:58.879Z,19.52
2017-09-30T11:55:30.016Z,20.50
2017-09-30T11:57:59.457Z,19.85
2017-09-30T12:00:29.171Z,20.30
2017-09-30T12:02:57.559Z,20.27
2017-09-30T12:05:25.998Z,21.15
2017-09-30T12:07:55.293Z,19.75
2017-09-30T12:10:23.793Z,19.35
2017-09-30T12:12:52.227Z,20.15
2017-09-30T12:15:22.646Z,20.75
2017-09-30T12:17:52.269Z,21.80
2017-09-30T12:20:20.788Z,20.73
2017-09-30T12:22:50.470Z,20.90
2017-09-30T12:25:20.075Z,19.87
2017-09-30T12:27:48.623Z,20.05
2017-09-30T12:30:17.386Z,19.67
2017-09-30T12:35:46.711Z,21.33
2017-09-30T12:38:18.828Z,21.10
2017-09-30T12:40:49.286Z,19.37
2017-09-30T12:43:18.957Z,21.15
2017-09-30T12:45:48.854Z,20.40
2017-09-30T12:48:17.231Z,19.67
2017-09-30T12:50:46.968Z,19.75
2017-09-30T12:53:15.515Z,19.65
2017-09-30T12:55:45.784Z,20.02
2017-09-30T12:58:14.956Z,20.27
2017-09-30T13:00:45.356Z,19.05
2017-09-30T13:03:14.500Z,20.50
2017-09-30T13:05:44.045Z,20.80
2017-09-30T13:08:13.084Z,21.85
2017-09-30T13:10:42.603Z,20.12
2017-09-30T13:13:14.056Z,19.95
2017-09-30T13:15:42.619Z,19.08
2017-09-30T13:18:11.854Z,19.45
2017-09-30T13:26:05.421Z,19.12
2017-09-30T13:28:41.182Z,19.80
2017-09-30T13:31:10.411Z,19.90
2017-09-30T13:33:40.407Z,20.55
2017-09-30T13:39:07.129Z,19.95
2017-09-30T13:41:37.890Z,20.12
2017-09-30T13:44:08.593Z,19.80
2017-09-30T13:46:38.119Z,20.92
2017-09-30T13:49:12.875Z,19.17
2017-09-30T13:51:41.463Z,20.98
2017-09-30T13:54:11.750Z,20.45
2017-09-30T13:56:41.448Z,20.37
2017-09-30T13:59:09.852Z,20.37
2017-09-30T14:01:38.441Z,20.73
2017-09-30T14:04:06.826Z,19.17
2017-09-30T14:06:35.164Z,20.75
2017-09-30T14:09:04.789Z,20.95
2017-09-30T14:11:33.873Z,20.70
2017-09-30T14:14:03.831Z,20.67
2017-09-30T14:16:32.196Z,19.95
2017-09-30T14:19:00.613Z,20.37
2017-09-30T14:21:28.944Z,19.42
2017-09-30T14:23:57.169Z,19.55
2017-09-30T14:26:25.520Z,20.55
2017-09-30T14:28:53.753Z,19.60
2017-09-30T14:31:22.853Z,19.55
2017-09-30T14:33:51.240Z,19.83
2017-09-30T14:36:19.542Z,20.52
2017-09-30T14:38:47.938Z,18.48
2017-09-30T14:41:16.322Z,20.45
2017-09-30T14:43:44.702Z,20.10
2017-09-30T14:46:13.692Z,19.48
2017-09-30T14:51:18.585Z,19.40
2017-09-30T14:53:47.650Z,21.23
2017-09-30T14:56:15.960Z,20.35
2017-09-30T14:58:44.214Z,21.02
2017-09-30T15:01:13.242Z,20.58
2017-09-30T15:03:41.509Z,21.67
2017-09-30T15:06:09.770Z,20.08
2017-09-30T15:08:39.365Z,21.65
2017-09-30T15:11:07.688Z,20.77
2017-09-30T15:13:35.935Z,20.45
2017-09-30T15:16:04.939Z,19.17
2017-09-30T15:18:33.149Z,20.10
2017-09-30T15:21:01.369Z,20.73
2017-09-30T15:23:30.460Z,19.90
2017-09-30T15:25:59.606Z,20.30
2017-09-30T15:28:28.296Z,21.27
2017-09-30T15:30:56.564Z,20.27
2017-09-30T15:33:24.846Z,21.10
2017-09-30T15:35:53.180Z,21.20
2017-09-30T15:38:21.459Z,21.75
2017-09-30T15:40:49.719Z,21.50
2017-09-30T15:43:18.728Z,21.05
2017-09-30T15:45:47.513Z,20.45
2017-09-30T15:48:16.243Z,20.52
2017-09-30T15:50:45.286Z,20.15
2017-09-30T15:53:13.591Z,19.87
2017-09-30T15:55:41.869Z,21.67
2017-09-30T15:58:10.165Z,19.45
2017-09-30T16:00:38.431Z,19.83
2017-09-30T16:03:07.036Z,21.55
2017-09-30T16:05:35.399Z,20.42
2017-09-30T16:08:03.616Z,21.23
2017-09-30T16:10:31.948Z,21.15
2017-09-30T16:13:00.589Z,20.62
2017-09-30T16:15:28.792Z,21.20
2017-09-30T16:17:57.242Z,21.30
2017-09-30T16:20:27.076Z,20.73
2017-09-30T16:22:55.349Z,21.85
2017-09-30T16:25:23.648Z,20.65
2017-09-30T16:27:51.951Z,20.58
2017-09-30T16:30:20.234Z,20.62
2017-09-30T16:32:49.207Z,21.05
2017-09-30T16:35:17.437Z,22.27
2017-09-30T16:37:45.697Z,22.37
2017-09-30T16:40:13.975Z,20.65
2017-09-30T16:42:42.248Z,19.95
2017-09-30T16:45:10.455Z,20.92
2017-09-30T16:47:38.736Z,20.15
2017-09-30T16:50:06.972Z,20.37
2017-09-30T16:52:35.648Z,21.20
2017-09-30T16:55:03.958Z,22.75
2017-09-30T16:57:32.282Z,20.90
2017-09-30T17:00:00.556Z,20.70
2017-09-30T17:02:28.934Z,22.13
2017-09-30T17:04:58.054Z,20.70
2017-09-30T17:07:26.362Z,20.75
2017-09-30T17:09:55.434Z,21.83
2017-09-30T17:12:23.778Z,20.40
2017-09-30T17:14:52.054Z,20.73
2017-09-30T17:17:20.409Z,21.77
2017-09-30T17:19:48.656Z,21.37
2017-09-30T17:22:16.929Z,20.65
2017-09-30T17:24:51.570Z,20.73
2017-09-30T17:27:23.124Z,20.58
2017-09-30T17:29:53.891Z,20.92
2017-09-30T17:32:25.965Z,20.20
2017-09-30T17:34:58.114Z,21.23
2017-09-30T17:37:33.193Z,22.08
2017-09-30T17:40:12.702Z,21.42
2017-09-30T17:42:44.518Z,20.17
2017-09-30T17:45:13.016Z,20.27
2017-09-30T17:47:41.239Z,20.35
2017-09-30T17:50:10.472Z,20.30
2017-09-30T17:52:38.742Z,21.12
2017-09-30T17:55:07.075Z,21.60
2017-09-30T17:57:36.089Z,19.30
2017-09-30T18:00:04.421Z,20.42
2017-09-30T18:02:33.089Z,20.30
2017-09-30T18:05:02.349Z,19.90
2017-09-30T18:07:30.680Z,21.50
2017-09-30T18:09:59.748Z,20.52
2017-09-30T18:12:28.056Z,19.20
2017-09-30T18:14:56.347Z,20.60
2017-09-30T18:17:25.394Z,18.95
2017-09-30T18:19:53.678Z,20.62
2017-09-30T18:22:23.074Z,21.25
2017-09-30T18:24:51.355Z,20.37
2017-09-30T18:27:19.705Z,19.30
2017-09-30T18:29:48.089Z,20.42
2017-09-30T18:32:16.450Z,20.98
2017-09-30T18:34:44.697Z,20.05
2017-09-30T18:37:13.717Z,18.70
2017-09-30T18:39:42.435Z,18.95
2017-09-30T18:42:10.861Z,20.00
2017-09-30T18:44:39.168Z,19.40
2017-09-30T18:47:07.446Z,18.25
2017-09-30T18:49:35.729Z,20.10
2017-09-30T18:52:04.047Z,20.70
2017-09-30T18:54:33.116Z,18.67
2017-09-30T18:57:01.466Z,19.05
2017-09-30T18:59:30.177Z,19.02
2017-09-30T19:01:58.427Z,18.60
2017-09-30T19:04:26.770Z,18.50
2017-09-30T19:06:55.924Z,17.48
2017-09-30T19:09:24.234Z,18.17
2017-09-30T19:11:53.699Z,17.55
2017-09-30T19:14:21.964Z,18.90
2017-09-30T19:16:50.237Z,17.87
2017-09-30T19:19:18.782Z,18.23
2017-09-30T19:21:47.243Z,18.35
2017-09-30T19:24:16.274Z,19.00
2017-09-30T19:26:44.580Z,18.40
2017-09-30T19:29:13.259Z,17.25
2017-09-30T19:31:41.558Z,18.73
2017-09-30T19:34:09.818Z,17.87
2017-09-30T19:36:38.185Z,17.27
2017-09-30T19:39:06.465Z,17.90
2017-09-30T19:41:35.564Z,17.45
2017-09-30T19:44:04.988Z,17.50
2017-09-30T19:46:34.771Z,18.10
2017-09-30T19:49:03.982Z,18.77
2017-09-30T19:51:32.278Z,17.05
2017-09-30T19:54:00.597Z,17.98
2017-09-30T19:56:29.440Z,17.90
2017-09-30T19:58:59.126Z,17.40
2017-09-30T20:01:27.508Z,18.45
2017-09-30T20:03:56.446Z,15.75
2017-09-30T20:06:24.897Z,16.73
2017-09-30T20:08:53.703Z,17.50
2017-09-30T20:11:22.042Z,16.70
2017-09-30T20:16:50.611Z,17.75
2017-09-30T20:19:18.924Z,16.70
2017-09-30T20:21:47.206Z,16.90
2017-09-30T20:24:15.468Z,15.73
2017-09-30T20:26:45.559Z,17.55
2017-09-30T20:29:13.866Z,18.30
2017-09-30T20:31:42.129Z,16.73
2017-09-30T20:34:10.385Z,17.37
2017-09-30T20:36:38.761Z,15.85
2017-09-30T20:39:08.959Z,12.55
2017-09-30T20:41:37.726Z,12.25
2017-09-30T20:44:06.855Z,10.95
2017-09-30T20:46:35.188Z,10.75
2017-09-30T20:49:03.686Z,9.38
2017-09-30T20:51:32.746Z,9.32
2017-09-30T20:54:01.027Z,8.52
2017-09-30T20:56:29.287Z,7.75
2017-09-30T20:58:57.979Z,6.47
2017-09-30T21:01:26.220Z,6.22
2017-09-30T21:03:54.488Z,5.47
2017-09-30T21:06:35.525Z,6.30
2017-09-30T21:09:03.854Z,6.20
2017-09-30T21:11:32.111Z,4.90
2017-09-30T21:14:00.428Z,5.65
2017-09-30T21:16:29.164Z,4.70
2017-09-30T21:18:57.436Z,4.50
2017-09-30T21:21:26.425Z,4.57
2017-09-30T21:23:55.549Z,5.00
2017-09-30T21:26:23.822Z,5.03
2017-09-30T21:28:52.167Z,3.95
2017-09-30T21:31:21.262Z,3.53
2017-09-30T21:33:50.812Z,3.65
2017-09-30T21:36:19.073Z,3.58
2017-09-30T21:38:47.362Z,3.83
2017-09-30T21:41:15.613Z,3.20
2017-09-30T21:43:43.840Z,3.62
2017-09-30T21:46:12.116Z,3.20
2017-09-30T21:48:42.091Z,2.83
2017-09-30T21:51:10.399Z,2.37
2017-09-30T21:53:38.648Z,3.25
2017-09-30T21:56:07.218Z,2.60
2017-09-30T21:58:35.740Z,2.70
2017-09-30T22:01:05.151Z,2.47
2017-09-30T22:03:33.561Z,2.28
2017-09-30T22:06:01.887Z,2.30
2017-09-30T22:08:31.537Z,2.50
2017-09-30T22:11:00.645Z,2.70
2017-09-30T22:13:32.010Z,2.47
2017-09-30T22:16:00.408Z,2.00
2017-09-30T22:18:28.756Z,2.33
2017-09-30T22:20:57.161Z,2.35
2017-09-30T22:23:25.476Z,2.87
2017-09-30T22:25:54.580Z,2.22
2017-09-30T22:28:23.712Z,1.98
2017-09-30T22:30:52.206Z,2.17
2017-09-30T22:33:20.638Z,2.00
2017-09-30T22:35:49.720Z,2.05
2017-09-30T22:38:19.066Z,2.67
2017-09-30T22:40:48.149Z,2.20
2017-09-30T22:43:18.140Z,2.08
2017-09-30T22:45:48.137Z,2.30
2017-09-30T22:48:16.589Z,2.20
2017-09-30T22:50:44.858Z,2.00
2017-09-30T22:53:13.239Z,2.55
2017-09-30T22:55:41.528Z,2.60
2017-09-30T22:58:09.789Z,2.40
2017-09-30T23:00:38.062Z,2.58
2017-09-30T23:03:06.527Z,2.08
2017-09-30T23:05:35.265Z,2.30
2017-09-30T23:08:06.591Z,2.70
2017-09-30T23:10:35.259Z,2.10
2017-09-30T23:13:03.487Z,2.80
2017-09-30T23:15:32.477Z,1.83
2017-09-30T23:18:01.672Z,2.20
2017-09-30T23:20:30.764Z,2.60
2017-09-30T23:22:59.825Z,2.30
2017-09-30T23:25:28.096Z,2.67
2017-09-30T23:27:56.790Z,2.12
2017-09-30T23:30:25.092Z,2.20
2017-09-30T23:32:54.089Z,2.22
2017-09-30T23:35:23.146Z,2.40
2017-09-30T23:37:51.491Z,2.75
2017-09-30T23:40:20.508Z,2.17
2017-09-30T23:42:48.743Z,2.35
2017-09-30T23:45:17.390Z,2.40
2017-09-30T23:47:45.667Z,2.47
2017-09-30T23:50:14.125Z,2.15
2017-09-30T23:52:42.559Z,2.45
2017-09-30T23:55:10.784Z,2.85
2017-09-30T23:57:39.049Z,2.20
